createdAt,value
2022-11-25T00:00:07.164Z,48.3
2022-11-25T00:01:23.460Z,48.6
2022-11-25T00:02:39.748Z,48.9
2022-11-25T00:03:56.045Z,48.8
2022-11-25T00:05:12.344Z,47.2
2022-11-25T00:06:28.638Z,47.6
2022-11-25T00:07:44.935Z,47.2
2022-11-25T00:09:01.224Z,47.5
2022-11-25T00:10:17.530Z,47.2
2022-11-25T00:11:33.809Z,47.5
2022-11-25T00:12:49.135Z,47.2
2022-11-25T00:14:05.432Z,56.2
2022-11-25T00:15:21.713Z,48.5
2022-11-25T00:16:38.013Z,47.6
2022-11-25T00:17:54.299Z,47.5
2022-11-25T00:19:10.595Z,48
2022-11-25T00:20:26.903Z,47.6
2022-11-25T00:21:43.179Z,47.6
2022-11-25T00:22:59.495Z,47.3
2022-11-25T00:24:15.778Z,48
2022-11-25T00:25:32.062Z,47.5
2022-11-25T00:26:48.357Z,47.2
2022-11-25T00:28:04.662Z,47.8
2022-11-25T00:29:19.980Z,47.6
2022-11-25T00:30:36.266Z,47.5
2022-11-25T00:31:52.559Z,47.6
2022-11-25T00:33:08.848Z,48.6
2022-11-25T00:34:25.160Z,47.2
2022-11-25T00:35:41.451Z,47.5
2022-11-25T00:36:57.746Z,47.6
2022-11-25T00:38:14.038Z,48
2022-11-25T00:39:30.331Z,47.6
2022-11-25T00:40:46.623Z,48
2022-11-25T00:42:02.918Z,47.6
2022-11-25T00:43:19.213Z,48.1
2022-11-25T00:44:35.509Z,47.6
2022-11-25T00:45:50.819Z,48.1
2022-11-25T00:47:07.103Z,48.1
2022-11-25T00:48:23.407Z,47.6
2022-11-25T00:49:39.711Z,47.5
2022-11-25T00:50:55.993Z,47.5
2022-11-25T00:52:12.293Z,47.8
2022-11-25T00:53:28.577Z,47.6
2022-11-25T00:54:44.888Z,47.8
2022-11-25T00:56:01.164Z,47.8
2022-11-25T00:57:17.472Z,48
2022-11-25T00:58:33.772Z,47.8
2022-11-25T00:59:50.077Z,48.5
2022-11-25T01:01:06.347Z,68.6
2022-11-25T01:02:21.665Z,49.3
2022-11-25T01:03:37.956Z,48.9
2022-11-25T01:04:54.249Z,48.1
2022-11-25T01:06:10.541Z,47.8
2022-11-25T01:07:26.847Z,48.3
2022-11-25T01:08:43.133Z,49.4
2022-11-25T01:09:59.421Z,53.9
2022-11-25T01:11:15.718Z,47.3
2022-11-25T01:12:32.016Z,48
2022-11-25T01:13:48.313Z,47.2
2022-11-25T01:15:04.618Z,47.8
2022-11-25T01:16:20.911Z,47.5
2022-11-25T01:17:37.195Z,47.5
2022-11-25T01:18:52.525Z,47.5
2022-11-25T01:20:08.797Z,50.4
2022-11-25T01:21:25.091Z,48.1
2022-11-25T01:22:41.389Z,47.6
2022-11-25T01:23:57.689Z,48.5
2022-11-25T01:25:13.996Z,48.1
2022-11-25T01:26:30.284Z,48.3
2022-11-25T01:27:46.568Z,47.5
2022-11-25T01:29:02.870Z,48.5
2022-11-25T01:30:19.177Z,47.8
2022-11-25T01:31:35.453Z,48.3
2022-11-25T01:32:51.743Z,47.6
2022-11-25T01:34:08.052Z,48.3
2022-11-25T01:35:23.347Z,48.1
2022-11-25T01:36:39.646Z,48.1
2022-11-25T01:37:55.937Z,48
2022-11-25T01:39:12.235Z,48.3
2022-11-25T01:40:28.537Z,48.8
2022-11-25T01:41:44.835Z,48.1
2022-11-25T01:43:01.119Z,48.3
2022-11-25T01:44:17.432Z,48
2022-11-25T01:45:33.715Z,48.5
2022-11-25T01:46:50.012Z,48.5
2022-11-25T01:48:06.306Z,49.3
2022-11-25T01:49:22.585Z,47.8
2022-11-25T01:50:38.903Z,48
2022-11-25T01:51:54.191Z,48
2022-11-25T01:53:10.497Z,47.6
2022-11-25T01:54:26.786Z,48.9
2022-11-25T01:55:43.083Z,49.6
2022-11-25T01:56:59.378Z,48.5
2022-11-25T01:58:15.680Z,47.6
2022-11-25T01:59:31.970Z,47.6
2022-11-25T02:00:48.264Z,48.1
2022-11-25T02:02:04.567Z,48.6
2022-11-25T02:03:20.859Z,47.6
2022-11-25T02:04:37.137Z,48
2022-11-25T02:05:53.434Z,48.1
2022-11-25T02:07:09.724Z,48
2022-11-25T02:08:25.043Z,47.8
2022-11-25T02:09:41.344Z,48.1
2022-11-25T02:10:57.624Z,48.5
2022-11-25T02:12:13.943Z,48.3
2022-11-25T02:13:30.230Z,47.5
2022-11-25T02:14:46.528Z,47.5
2022-11-25T02:16:01.847Z,47.6
2022-11-25T02:17:18.139Z,47.6
2022-11-25T02:18:34.434Z,48.1
2022-11-25T02:19:50.717Z,48.6
2022-11-25T02:21:07.031Z,47.8
2022-11-25T02:22:23.320Z,48.5
2022-11-25T02:23:39.606Z,47.5
2022-11-25T02:24:55.898Z,71
2022-11-25T02:26:12.198Z,51.4
2022-11-25T02:27:28.485Z,47.8
2022-11-25T02:28:44.780Z,47.6
2022-11-25T02:30:01.066Z,48.6
2022-11-25T02:31:17.377Z,48.6
2022-11-25T02:32:32.687Z,48.1
2022-11-25T02:33:48.968Z,48.8
2022-11-25T02:35:05.278Z,48.1
2022-11-25T02:36:21.566Z,48.5
2022-11-25T02:37:37.862Z,48.5
2022-11-25T02:38:54.147Z,48.9
2022-11-25T02:40:10.449Z,48.1
2022-11-25T02:41:26.746Z,48
2022-11-25T02:42:43.040Z,48.5
2022-11-25T02:43:59.324Z,48.5
2022-11-25T02:45:15.634Z,47.6
2022-11-25T02:46:31.925Z,48.1
2022-11-25T02:47:48.214Z,49.1
2022-11-25T02:49:03.536Z,48.9
2022-11-25T02:50:19.830Z,48
2022-11-25T02:51:36.111Z,48.3
2022-11-25T02:52:52.422Z,47.6
2022-11-25T02:54:08.706Z,47.8
2022-11-25T02:55:25.006Z,48.6
2022-11-25T02:56:41.290Z,49.7
2022-11-25T02:57:57.596Z,48.3
2022-11-25T02:59:13.897Z,48.6
2022-11-25T03:00:30.197Z,48.3
2022-11-25T03:01:46.482Z,48.6
2022-11-25T03:03:02.761Z,48.9
2022-11-25T03:04:19.055Z,48.9
2022-11-25T03:05:34.388Z,48.6
2022-11-25T03:06:50.678Z,48.6
2022-11-25T03:08:06.967Z,48.6
2022-11-25T03:09:23.249Z,49.4
2022-11-25T03:10:39.544Z,48.3
2022-11-25T03:11:55.843Z,48.1
2022-11-25T03:13:12.137Z,48.8
2022-11-25T03:14:28.431Z,49.4
2022-11-25T03:15:44.723Z,48.6
2022-11-25T03:17:01.016Z,57.5
2022-11-25T03:18:17.314Z,50.4
2022-11-25T03:19:33.612Z,48.9
2022-11-25T03:20:49.917Z,50.1
2022-11-25T03:22:05.232Z,48.5
2022-11-25T03:23:21.513Z,48.5
2022-11-25T03:24:37.811Z,48.1
2022-11-25T03:25:54.109Z,49.7
2022-11-25T03:27:10.398Z,49.3
2022-11-25T03:28:26.684Z,50.9
2022-11-25T03:29:42.983Z,51
2022-11-25T03:30:59.285Z,62.1
2022-11-25T03:32:15.576Z,52
2022-11-25T03:33:31.880Z,51
2022-11-25T03:34:48.160Z,50.4
2022-11-25T03:36:04.459Z,50.2
2022-11-25T03:37:20.765Z,50.1
2022-11-25T03:38:36.070Z,49.7
2022-11-25T03:39:52.357Z,50.2
2022-11-25T03:41:08.664Z,56.3
2022-11-25T03:42:24.953Z,51.7
2022-11-25T03:43:41.255Z,53
2022-11-25T03:44:57.531Z,50.1
2022-11-25T03:46:13.836Z,50.2
2022-11-25T03:47:30.136Z,50.2
2022-11-25T03:48:46.428Z,50.7
2022-11-25T03:50:02.725Z,50.2
2022-11-25T03:51:19.013Z,50.4
2022-11-25T03:52:35.311Z,50.9
2022-11-25T03:53:51.598Z,51.2
2022-11-25T03:55:06.916Z,50.1
2022-11-25T03:56:23.216Z,51.8
2022-11-25T03:57:39.494Z,51.5
2022-11-25T03:58:55.803Z,50.7
2022-11-25T04:00:12.098Z,51.7
2022-11-25T04:01:28.379Z,50.7
2022-11-25T04:02:44.688Z,50.7
2022-11-25T04:04:00.972Z,51.7
2022-11-25T04:05:17.289Z,51.5
2022-11-25T04:06:33.564Z,51.4
2022-11-25T04:07:49.864Z,50.4
2022-11-25T04:09:06.157Z,50.7
2022-11-25T04:10:22.454Z,51.2
2022-11-25T04:11:37.753Z,50.1
2022-11-25T04:12:54.055Z,51.4
2022-11-25T04:14:10.360Z,50.7
2022-11-25T04:15:26.645Z,50.7
2022-11-25T04:16:42.948Z,50.1
2022-11-25T04:17:59.227Z,51.8
2022-11-25T04:19:15.542Z,52.5
2022-11-25T04:20:31.824Z,51
2022-11-25T04:21:48.114Z,51.4
2022-11-25T04:23:04.422Z,52.3
2022-11-25T04:24:20.704Z,51.5
2022-11-25T04:25:37.001Z,51.7
2022-11-25T04:26:53.297Z,51.4
2022-11-25T04:28:08.610Z,50.4
2022-11-25T04:29:24.911Z,51.2
2022-11-25T04:30:41.199Z,54.1
2022-11-25T04:31:57.508Z,51.8
2022-11-25T04:33:13.787Z,51.8
2022-11-25T04:34:30.097Z,52
2022-11-25T04:35:46.388Z,51.4
2022-11-25T04:37:02.680Z,52.5
2022-11-25T04:38:18.965Z,51.5
2022-11-25T04:39:35.260Z,51.8
2022-11-25T04:40:51.564Z,51
2022-11-25T04:42:07.857Z,52
2022-11-25T04:43:24.145Z,51.7
2022-11-25T04:44:39.454Z,51.8
2022-11-25T04:45:55.750Z,51.5
2022-11-25T04:47:12.051Z,52.2
2022-11-25T04:48:28.337Z,53
2022-11-25T04:49:44.635Z,51
2022-11-25T04:51:00.924Z,52.5
2022-11-25T04:52:17.226Z,51.2
2022-11-25T04:53:33.523Z,51.4
2022-11-25T04:54:49.817Z,53
2022-11-25T04:56:06.116Z,52.8
2022-11-25T04:57:22.407Z,53
2022-11-25T04:58:38.702Z,52.6
2022-11-25T04:59:54.991Z,52
2022-11-25T05:01:10.312Z,53.1
2022-11-25T05:02:26.602Z,51.2
2022-11-25T05:03:42.891Z,54.4
2022-11-25T05:04:59.194Z,55.4
2022-11-25T05:06:15.485Z,58.9
2022-11-25T05:07:31.775Z,60.1
2022-11-25T05:08:48.079Z,60.4
2022-11-25T05:10:04.376Z,62.1
2022-11-25T05:11:20.663Z,59.9
2022-11-25T05:12:36.974Z,59.7
2022-11-25T05:13:53.252Z,61
2022-11-25T05:15:09.549Z,60.1
2022-11-25T05:16:25.838Z,61.2
2022-11-25T05:17:41.151Z,57.3
2022-11-25T05:18:57.447Z,58.1
2022-11-25T05:20:13.747Z,57.6
2022-11-25T05:21:30.040Z,57.3
2022-11-25T05:22:46.329Z,56.2
2022-11-25T05:24:02.624Z,58.3
2022-11-25T05:25:18.918Z,53.3
2022-11-25T05:26:35.211Z,52.5
2022-11-25T05:27:51.504Z,51.7
2022-11-25T05:29:07.798Z,52.5
2022-11-25T05:30:24.105Z,58.4
2022-11-25T05:31:40.406Z,54.7
2022-11-25T05:32:56.688Z,54.1
2022-11-25T05:34:11.992Z,52.5
2022-11-25T05:35:28.303Z,53.3
2022-11-25T05:36:44.594Z,54.1
2022-11-25T05:38:00.875Z,54.3
2022-11-25T05:39:17.182Z,54.3
2022-11-25T05:40:33.482Z,53.6
2022-11-25T05:41:49.786Z,53.3
2022-11-25T05:43:06.055Z,54.1
2022-11-25T05:44:22.349Z,55.1
2022-11-25T05:45:38.659Z,55.5
2022-11-25T05:46:54.945Z,54.6
2022-11-25T05:48:11.236Z,53.8
2022-11-25T05:49:27.532Z,53.3
2022-11-25T05:50:42.848Z,54.3
2022-11-25T05:51:59.148Z,52.6
2022-11-25T05:53:15.436Z,53.9
2022-11-25T05:54:31.725Z,53.4
2022-11-25T05:55:47.973Z,52.8
2022-11-25T05:57:04.284Z,53.3
2022-11-25T05:58:20.556Z,53.6
2022-11-25T05:59:36.856Z,53.1
2022-11-25T06:00:53.103Z,53.4
2022-11-25T06:02:09.402Z,52.5
2022-11-25T06:03:25.697Z,53.4
2022-11-25T06:04:41.950Z,53.8
2022-11-25T06:05:58.201Z,54.4
2022-11-25T06:07:13.501Z,53.1
2022-11-25T06:08:29.763Z,53.1
2022-11-25T06:09:45.996Z,54.9
2022-11-25T06:11:02.227Z,53.4
2022-11-25T06:12:18.486Z,54.9
2022-11-25T06:13:34.711Z,54.9
2022-11-25T06:14:50.965Z,52.6
2022-11-25T06:16:07.192Z,53.4
2022-11-25T06:17:23.433Z,52.8
2022-11-25T06:18:39.683Z,53
2022-11-25T06:19:55.931Z,53.6
2022-11-25T06:21:12.167Z,53.4
2022-11-25T06:22:28.403Z,54.4
2022-11-25T06:23:43.663Z,53
2022-11-25T06:24:59.913Z,53.3
2022-11-25T06:26:16.137Z,54.3
2022-11-25T06:27:32.392Z,55.7
2022-11-25T06:28:48.637Z,55.7
2022-11-25T06:30:04.868Z,53.8
2022-11-25T06:31:20.126Z,53.8
2022-11-25T06:32:36.361Z,54.1
2022-11-25T06:33:52.620Z,53
2022-11-25T06:35:08.841Z,53.4
2022-11-25T06:36:25.104Z,53.3
2022-11-25T06:37:41.327Z,55.5
2022-11-25T06:38:57.581Z,53
2022-11-25T06:40:13.809Z,53
2022-11-25T06:41:30.062Z,53.4
2022-11-25T06:42:46.291Z,54.6
2022-11-25T06:44:02.546Z,54.4
2022-11-25T06:45:18.774Z,54.4
2022-11-25T06:46:35.020Z,54.7
2022-11-25T06:47:50.273Z,53.6
2022-11-25T06:49:06.517Z,53
2022-11-25T06:50:22.751Z,54.7
2022-11-25T06:51:39.000Z,52.6
2022-11-25T06:52:55.234Z,53.8
2022-11-25T06:54:11.477Z,53.6
2022-11-25T06:55:27.712Z,53.4
2022-11-25T06:56:43.954Z,55.2
2022-11-25T06:58:00.198Z,53.4
2022-11-25T06:59:16.436Z,53.1
2022-11-25T07:00:32.683Z,54.9
2022-11-25T07:01:48.929Z,52.8
2022-11-25T07:03:05.167Z,54.3
2022-11-25T07:04:20.417Z,54.3
2022-11-25T07:05:36.658Z,55.5
2022-11-25T07:06:52.900Z,53.6
2022-11-25T07:08:09.146Z,56.2
2022-11-25T07:09:25.382Z,54.3
2022-11-25T07:10:41.630Z,55.1
2022-11-25T07:11:57.858Z,53.9
2022-11-25T07:13:14.104Z,53.3
2022-11-25T07:14:30.344Z,54.1
2022-11-25T07:15:46.581Z,53.9
2022-11-25T07:17:02.836Z,54.6
2022-11-25T07:18:19.069Z,54.3
2022-11-25T07:19:35.305Z,53.9
2022-11-25T07:20:50.566Z,54.3
2022-11-25T07:22:06.806Z,54.7
2022-11-25T07:23:23.044Z,53
2022-11-25T07:24:39.293Z,56
2022-11-25T07:25:55.527Z,54.4
2022-11-25T07:27:11.767Z,55.2
2022-11-25T07:28:28.010Z,54.4
2022-11-25T07:29:44.254Z,55.2
2022-11-25T07:31:00.485Z,55.1
2022-11-25T07:32:16.733Z,54.4
2022-11-25T07:33:32.972Z,54.3
2022-11-25T07:34:49.210Z,55.1
2022-11-25T07:36:05.455Z,55.2
2022-11-25T07:37:20.703Z,55.1
2022-11-25T07:38:36.951Z,55.5
2022-11-25T07:39:53.182Z,53.9
2022-11-25T07:41:09.439Z,55.9
2022-11-25T07:42:25.675Z,55.5
2022-11-25T07:43:41.926Z,56.3
2022-11-25T07:44:58.148Z,60.7
2022-11-25T07:46:14.400Z,56.3
2022-11-25T07:47:30.637Z,54.9
2022-11-25T07:48:46.873Z,56.2
2022-11-25T07:50:03.116Z,56.5
2022-11-25T07:51:19.363Z,56.8
2022-11-25T07:52:35.600Z,56
2022-11-25T07:53:50.849Z,54.9
2022-11-25T07:55:07.106Z,55.5
2022-11-25T07:56:23.329Z,55.7
2022-11-25T07:57:39.585Z,55.7
2022-11-25T07:58:55.820Z,55.2
2022-11-25T08:00:12.050Z,53.4
2022-11-25T08:01:28.300Z,55.9
2022-11-25T08:02:44.543Z,55.7
2022-11-25T08:04:00.781Z,56
2022-11-25T08:05:17.012Z,56
2022-11-25T08:06:33.269Z,55.5
2022-11-25T08:07:49.495Z,54.9
2022-11-25T08:09:05.751Z,59.2
2022-11-25T08:10:21.984Z,55.7
2022-11-25T08:11:37.245Z,55.5
2022-11-25T08:12:53.483Z,55.7
2022-11-25T08:14:09.722Z,55.7
2022-11-25T08:15:25.971Z,55.4
2022-11-25T08:16:42.195Z,55.1
2022-11-25T08:19:14.685Z,56.7
2022-11-25T08:20:30.920Z,54.7
2022-11-25T08:21:47.160Z,55.4
2022-11-25T08:23:03.409Z,55.1
2022-11-25T08:24:19.649Z,54.9
2022-11-25T08:25:35.891Z,54.7
2022-11-25T08:26:52.134Z,56.2
2022-11-25T08:28:07.385Z,55.7
2022-11-25T08:29:23.625Z,56
2022-11-25T08:30:39.861Z,55.2
2022-11-25T08:31:56.113Z,56.2
2022-11-25T08:33:12.342Z,55.7
2022-11-25T08:34:28.589Z,55.7
2022-11-25T08:35:44.818Z,55.5
2022-11-25T08:37:01.061Z,55.5
2022-11-25T08:38:17.315Z,57.8
2022-11-25T08:39:33.544Z,56
2022-11-25T08:40:49.780Z,55.5
2022-11-25T08:42:06.032Z,56.7
2022-11-25T08:43:22.261Z,56
2022-11-25T08:44:37.541Z,56.7
2022-11-25T08:45:53.771Z,54.7
2022-11-25T08:47:10.007Z,54.6
2022-11-25T08:48:26.253Z,56.7
2022-11-25T08:49:42.485Z,55.1
2022-11-25T08:50:58.738Z,55.4
2022-11-25T08:52:14.960Z,56.7
2022-11-25T08:53:31.210Z,57.2
2022-11-25T08:54:47.448Z,56
2022-11-25T08:56:03.694Z,54.3
2022-11-25T08:57:19.926Z,54.4
2022-11-25T08:58:36.171Z,53.6
2022-11-25T08:59:52.412Z,53.4
2022-11-25T09:01:07.674Z,52.8
2022-11-25T09:02:23.905Z,53.6
2022-11-25T09:03:40.144Z,53.4
2022-11-25T09:04:56.391Z,53.8
2022-11-25T09:06:12.620Z,53
2022-11-25T09:07:28.858Z,52.5
2022-11-25T09:08:45.105Z,54.3
2022-11-25T09:10:01.344Z,56.5
2022-11-25T09:11:17.586Z,51.8
2022-11-25T09:12:33.835Z,54.4
2022-11-25T09:13:50.066Z,50.1
2022-11-25T09:15:06.308Z,50.9
2022-11-25T09:16:22.554Z,55.9
2022-11-25T09:17:37.807Z,53.6
2022-11-25T09:18:54.036Z,48.9
2022-11-25T09:20:10.285Z,51.8
2022-11-25T09:21:26.516Z,52.8
2022-11-25T09:22:42.758Z,52.3
2022-11-25T09:23:59.014Z,52
2022-11-25T09:25:15.244Z,51.2
2022-11-25T09:26:31.476Z,50.7
2022-11-25T09:27:47.716Z,49.4
2022-11-25T09:29:03.959Z,52.8
2022-11-25T09:30:20.208Z,51.8
2022-11-25T09:31:36.441Z,50.4
2022-11-25T09:32:52.685Z,49.9
2022-11-25T09:34:07.946Z,49.6
2022-11-25T09:35:24.185Z,51.2
2022-11-25T09:36:40.427Z,51.4
2022-11-25T09:37:56.666Z,50.5
2022-11-25T09:39:12.905Z,49.1
2022-11-25T09:40:29.139Z,50.1
2022-11-25T09:41:45.384Z,49.7
2022-11-25T09:43:01.637Z,49.9
2022-11-25T09:44:17.867Z,52.2
2022-11-25T09:45:34.106Z,52.8
2022-11-25T09:46:50.351Z,52
2022-11-25T09:48:06.582Z,51.5
2022-11-25T09:49:22.830Z,51.5
2022-11-25T09:50:38.082Z,52.3
2022-11-25T09:51:54.326Z,53.4
2022-11-25T09:53:10.551Z,50.7
2022-11-25T09:54:26.790Z,51
2022-11-25T09:55:43.034Z,51.2
2022-11-25T09:56:59.277Z,50.7
2022-11-25T09:58:15.527Z,49.9
2022-11-25T09:59:31.765Z,51.5
2022-11-25T10:00:47.994Z,52.2
2022-11-25T10:02:04.234Z,49.6
2022-11-25T10:03:20.484Z,53.4
2022-11-25T10:04:36.726Z,51.2
2022-11-25T10:05:52.959Z,51.7
2022-11-25T10:07:08.220Z,51.7
2022-11-25T10:08:24.458Z,52.6
2022-11-25T10:09:40.684Z,51.8
2022-11-25T10:10:56.934Z,51.8
2022-11-25T10:12:13.167Z,51.2
2022-11-25T10:13:29.413Z,51.2
2022-11-25T10:14:45.656Z,50.4
2022-11-25T10:16:01.891Z,52.2
2022-11-25T10:17:18.135Z,52.2
2022-11-25T10:18:34.371Z,52.8
2022-11-25T10:19:50.610Z,52
2022-11-25T10:21:06.855Z,51.4
2022-11-25T10:22:23.104Z,51.2
2022-11-25T10:23:38.350Z,49.9
2022-11-25T10:24:54.599Z,51.4
2022-11-25T10:26:10.835Z,51.5
2022-11-25T10:27:27.076Z,55.7
2022-11-25T10:28:43.302Z,51.8
2022-11-25T10:29:59.549Z,51
2022-11-25T10:31:15.792Z,51.8
2022-11-25T10:32:32.036Z,51.7
2022-11-25T10:33:48.267Z,52.5
2022-11-25T10:35:04.503Z,51.8
2022-11-25T10:36:20.754Z,51.8
2022-11-25T10:37:37.003Z,51.8
2022-11-25T10:38:53.236Z,52.3
2022-11-25T10:40:09.476Z,51.5
2022-11-25T10:41:24.725Z,52
2022-11-25T10:42:40.973Z,51.8
2022-11-25T10:43:57.214Z,49.7
2022-11-25T10:45:13.458Z,50.1
2022-11-25T10:46:28.000Z,50.7
2022-11-25T10:47:44.944Z,51
2022-11-25T10:49:01.190Z,49.7
2022-11-25T10:50:17.436Z,50.4
2022-11-25T10:51:33.682Z,50.5
2022-11-25T10:52:49.902Z,50.5
2022-11-25T10:54:06.158Z,49.4
2022-11-25T10:55:22.000Z,49.9
2022-11-25T10:56:38.631Z,50.1
2022-11-25T10:57:54.874Z,49.7
2022-11-25T10:59:11.116Z,49.7
2022-11-25T11:00:27.357Z,50.7
2022-11-25T11:01:43.597Z,49.1
2022-11-25T11:02:58.842Z,49.3
2022-11-25T11:04:15.100Z,48.9
2022-11-25T11:05:31.337Z,48.5
2022-11-25T11:06:47.560Z,48.6
2022-11-25T11:08:03.807Z,48.9
2022-11-25T11:09:20.053Z,48.9
2022-11-25T11:10:36.280Z,49.3
2022-11-25T11:11:52.527Z,50.1
2022-11-25T11:13:08.764Z,48.9
2022-11-25T11:14:25.019Z,49.9
2022-11-25T11:15:41.254Z,49.4
2022-11-25T11:16:57.482Z,49.9
2022-11-25T11:18:13.735Z,50.4
2022-11-25T11:19:28.987Z,48.6
2022-11-25T11:20:45.224Z,47.8
2022-11-25T11:22:01.469Z,47.8
2022-11-25T11:23:17.701Z,47.6
2022-11-25T11:24:33.953Z,48.1
2022-11-25T11:25:50.183Z,49.1
2022-11-25T11:27:06.421Z,47.5
2022-11-25T11:28:22.669Z,47.8
2022-11-25T11:29:38.916Z,47.5
2022-11-25T11:30:55.155Z,47.2
2022-11-25T11:32:11.384Z,48.3
2022-11-25T11:33:27.631Z,48
2022-11-25T11:34:43.865Z,47.6
2022-11-25T11:35:59.129Z,47.8
2022-11-25T11:37:15.373Z,47.6
2022-11-25T11:38:31.597Z,48
2022-11-25T11:39:47.862Z,45.9
2022-11-25T11:41:04.080Z,47.6
2022-11-25T11:42:20.314Z,48.5
2022-11-25T11:43:36.565Z,49.7
2022-11-25T11:44:52.809Z,47.8
2022-11-25T11:46:09.040Z,47.5
2022-11-25T11:47:25.274Z,48.9
2022-11-25T11:48:41.534Z,47.3
2022-11-25T11:49:57.781Z,48.8
2022-11-25T11:51:13.995Z,47.3
2022-11-25T11:52:29.255Z,47.6
2022-11-25T11:53:45.499Z,47.6
2022-11-25T11:55:01.734Z,60.5
2022-11-25T11:56:17.974Z,47
2022-11-25T11:57:34.229Z,47.3
2022-11-25T11:58:50.460Z,46.7
2022-11-25T12:00:06.700Z,45.7
2022-11-25T12:01:22.943Z,45.7
2022-11-25T12:02:39.185Z,45.6
2022-11-25T12:03:55.424Z,47
2022-11-25T12:05:11.662Z,45.2
2022-11-25T12:06:27.904Z,46.2
2022-11-25T12:07:44.143Z,46.4
2022-11-25T12:08:59.407Z,46.8
2022-11-25T12:10:15.643Z,47
2022-11-25T12:11:31.888Z,46.7
2022-11-25T12:12:48.128Z,46.8
2022-11-25T12:14:04.363Z,48.6
2022-11-25T12:15:20.590Z,47.6
2022-11-25T12:16:36.843Z,48.3
2022-11-25T12:17:53.084Z,47
2022-11-25T12:19:09.325Z,49.4
2022-11-25T12:20:25.560Z,46.8
2022-11-25T12:21:41.802Z,46.7
2022-11-25T12:22:58.038Z,47.6
2022-11-25T12:24:14.286Z,47.5
2022-11-25T12:25:29.535Z,48.5
2022-11-25T12:26:45.765Z,48.3
2022-11-25T12:28:02.017Z,47.3
2022-11-25T12:29:18.253Z,48.5
2022-11-25T12:30:34.491Z,48.3
2022-11-25T12:31:50.748Z,47
2022-11-25T12:33:06.981Z,48.5
2022-11-25T12:34:23.218Z,48
2022-11-25T12:35:39.457Z,48.5
2022-11-25T12:36:55.692Z,49.3
2022-11-25T12:38:11.942Z,48.9
2022-11-25T12:39:28.169Z,48.9
2022-11-25T12:40:44.425Z,49.1
2022-11-25T12:41:59.675Z,52.2
2022-11-25T12:43:15.914Z,49.4
2022-11-25T12:44:32.163Z,48.9
2022-11-25T12:45:48.401Z,48.5
2022-11-25T12:47:04.633Z,48
2022-11-25T12:48:20.882Z,49.3
2022-11-25T12:49:37.115Z,48.9
2022-11-25T12:50:53.349Z,50.2
2022-11-25T12:52:09.595Z,48.9
2022-11-25T12:53:25.827Z,49.1
2022-11-25T12:54:42.077Z,48.5
2022-11-25T12:55:58.312Z,49.4
2022-11-25T12:57:14.560Z,48.1
2022-11-25T12:58:29.820Z,48.5
2022-11-25T12:59:46.046Z,48.3
2022-11-25T13:01:02.000Z,48.8
2022-11-25T13:02:18.529Z,49.9
2022-11-25T13:03:34.778Z,48.5
2022-11-25T13:04:51.007Z,48.6
2022-11-25T13:06:07.250Z,48.3
2022-11-25T13:07:23.491Z,47.5
2022-11-25T13:08:39.739Z,51
2022-11-25T13:09:55.967Z,48.1
2022-11-25T13:11:12.211Z,48.8
2022-11-25T13:12:28.450Z,48.6
2022-11-25T13:13:44.695Z,48.3
2022-11-25T13:14:59.954Z,48.3
2022-11-25T13:16:16.202Z,49.4
2022-11-25T13:17:32.432Z,49.1
2022-11-25T13:18:48.673Z,48.8
2022-11-25T13:20:04.910Z,49.3
2022-11-25T13:21:21.158Z,50.4
2022-11-25T13:22:37.395Z,50.5
2022-11-25T13:23:53.636Z,50.1
2022-11-25T13:25:09.882Z,48.9
2022-11-25T13:26:26.111Z,48
2022-11-25T13:27:42.345Z,49.3
2022-11-25T13:28:58.593Z,49.1
2022-11-25T13:30:14.828Z,48.9
2022-11-25T13:31:30.085Z,48
2022-11-25T13:32:46.328Z,48.5
2022-11-25T13:34:02.578Z,48.1
2022-11-25T13:35:18.821Z,47.6
2022-11-25T13:36:35.045Z,48.3
2022-11-25T13:37:51.289Z,48.5
2022-11-25T13:39:07.537Z,48.8
2022-11-25T13:40:23.773Z,49.4
2022-11-25T13:41:40.013Z,48.5
2022-11-25T13:42:56.263Z,49.4
2022-11-25T13:44:12.503Z,50.1
2022-11-25T13:45:28.743Z,49.7
2022-11-25T13:46:44.975Z,48.5
2022-11-25T13:48:00.236Z,50.2
2022-11-25T13:49:16.477Z,48.9
2022-11-25T13:50:32.710Z,48.6
2022-11-25T13:51:48.953Z,48.9
2022-11-25T13:53:05.198Z,49.4
2022-11-25T13:54:21.443Z,49.1
2022-11-25T13:55:37.666Z,49.7
2022-11-25T13:56:53.910Z,49.4
2022-11-25T13:58:10.150Z,49.1
2022-11-25T13:59:26.398Z,49.4
2022-11-25T14:00:42.628Z,48.3
2022-11-25T14:01:58.872Z,49.7
2022-11-25T14:03:15.126Z,55.4
2022-11-25T14:04:30.365Z,49.7
2022-11-25T14:05:46.618Z,48.9
2022-11-25T14:07:02.850Z,52.6
2022-11-25T14:08:19.094Z,49.4
2022-11-25T14:09:35.328Z,49.9
2022-11-25T14:10:51.578Z,55.9
2022-11-25T14:12:07.805Z,48.6
2022-11-25T14:13:24.061Z,48.5
2022-11-25T14:14:40.298Z,49.7
2022-11-25T14:15:56.545Z,49.9
2022-11-25T14:17:12.770Z,50.1
2022-11-25T14:18:29.018Z,48.9
2022-11-25T14:19:45.271Z,48.9
2022-11-25T14:21:00.506Z,52
2022-11-25T14:22:16.758Z,49.4
2022-11-25T14:23:32.986Z,48.3
2022-11-25T14:24:49.230Z,50.2
2022-11-25T14:26:05.470Z,48.9
2022-11-25T14:27:21.721Z,48.6
2022-11-25T14:28:37.946Z,49.3
2022-11-25T14:29:54.208Z,50.4
2022-11-25T14:31:10.436Z,48.9
2022-11-25T14:32:26.674Z,48.1
2022-11-25T14:33:42.925Z,48.5
2022-11-25T14:34:59.149Z,48.6
2022-11-25T14:36:15.389Z,48.5
2022-11-25T14:37:30.658Z,48.3
2022-11-25T14:40:03.143Z,54.1
2022-11-25T14:41:19.374Z,47.6
2022-11-25T14:42:35.615Z,48
2022-11-25T14:43:51.849Z,56.2
2022-11-25T14:45:08.099Z,49.4
2022-11-25T14:46:24.335Z,48.6
2022-11-25T14:47:40.578Z,48.9
2022-11-25T14:48:56.815Z,48.9
2022-11-25T14:50:13.069Z,49.3
2022-11-25T14:51:29.290Z,49.4
2022-11-25T14:52:45.537Z,49.4
2022-11-25T14:54:00.807Z,50.1
2022-11-25T14:55:17.040Z,49.3
2022-11-25T14:56:33.280Z,51.5
2022-11-25T14:57:49.522Z,50.1
2022-11-25T14:59:05.761Z,50.4
2022-11-25T15:00:22.009Z,48.5
2022-11-25T15:01:37.254Z,48.8
2022-11-25T15:02:53.507Z,47.8
2022-11-25T15:04:09.746Z,48.8
2022-11-25T15:05:25.977Z,49.3
2022-11-25T15:06:42.212Z,51.5
2022-11-25T15:07:58.477Z,48.5
2022-11-25T15:09:14.703Z,48.5
2022-11-25T15:10:30.947Z,48.9
2022-11-25T15:11:47.191Z,52
2022-11-25T15:13:03.431Z,50.4
2022-11-25T15:14:19.665Z,51
2022-11-25T15:15:35.897Z,57
2022-11-25T15:16:52.142Z,57.3
2022-11-25T15:18:07.405Z,55.1
2022-11-25T15:19:23.632Z,55.1
2022-11-25T15:20:39.882Z,55.1
2022-11-25T15:21:56.129Z,53.3
2022-11-25T15:23:12.369Z,53
2022-11-25T15:24:28.595Z,53.9
2022-11-25T15:25:44.865Z,51.8
2022-11-25T15:27:01.085Z,54.6
2022-11-25T15:28:17.342Z,57.3
2022-11-25T15:29:33.568Z,55.9
2022-11-25T15:30:49.804Z,55.9
2022-11-25T15:32:06.110Z,57.3
2022-11-25T15:33:22.392Z,56.2
2022-11-25T15:34:37.708Z,55.9
2022-11-25T15:35:53.949Z,56.5
2022-11-25T15:37:10.203Z,56.2
2022-11-25T15:38:26.445Z,61
2022-11-25T15:39:42.736Z,59.6
2022-11-25T15:40:59.034Z,58.8
2022-11-25T15:42:15.315Z,57.2
2022-11-25T15:43:31.621Z,54.9
2022-11-25T15:44:47.917Z,56.2
2022-11-25T15:46:04.208Z,53
2022-11-25T15:47:20.495Z,54.6
2022-11-25T15:48:36.797Z,54.9
2022-11-25T15:49:53.094Z,50.5
2022-11-25T15:51:08.392Z,50.7
2022-11-25T15:52:24.691Z,52.3
2022-11-25T15:53:40.989Z,54.7
2022-11-25T15:54:57.283Z,61
2022-11-25T15:56:13.583Z,58.4
2022-11-25T15:57:29.865Z,57.5
2022-11-25T15:58:46.168Z,53.4
2022-11-25T16:00:02.452Z,56.2
2022-11-25T16:01:18.748Z,54.1
2022-11-25T16:02:35.040Z,55.2
2022-11-25T16:03:51.349Z,53.9
2022-11-25T16:05:07.634Z,53.9
2022-11-25T16:06:23.930Z,53.4
2022-11-25T16:07:39.252Z,57.2
2022-11-25T16:08:55.530Z,61.2
2022-11-25T16:10:11.837Z,56.8
2022-11-25T16:11:28.135Z,55.5
2022-11-25T16:12:44.422Z,53.4
2022-11-25T16:14:00.719Z,56.2
2022-11-25T16:15:17.006Z,52.2
2022-11-25T16:16:33.299Z,52.5
2022-11-25T16:17:49.609Z,49.4
2022-11-25T16:19:05.895Z,50.7
2022-11-25T16:20:22.191Z,48.9
2022-11-25T16:21:38.482Z,48.9
2022-11-25T16:22:54.774Z,48.1
2022-11-25T16:24:10.082Z,48.8
2022-11-25T16:25:26.372Z,53
2022-11-25T16:26:42.675Z,48.9
2022-11-25T16:27:58.967Z,48.9
2022-11-25T16:29:15.255Z,48.1
2022-11-25T16:30:31.556Z,49.1
2022-11-25T16:31:47.858Z,49.1
2022-11-25T16:33:04.158Z,49.4
2022-11-25T16:34:20.442Z,58.3
2022-11-25T16:35:36.735Z,50.7
2022-11-25T16:36:53.024Z,54.3
2022-11-25T16:38:09.317Z,49.9
2022-11-25T16:39:25.617Z,50.7
2022-11-25T16:40:40.932Z,48.6
2022-11-25T16:41:57.221Z,55.1
2022-11-25T16:43:13.512Z,48
2022-11-25T16:44:29.815Z,50.7
2022-11-25T16:45:46.104Z,48.9
2022-11-25T16:47:02.401Z,48
2022-11-25T16:48:18.691Z,54.3
2022-11-25T16:49:34.999Z,55.2
2022-11-25T16:50:51.279Z,48.1
2022-11-25T16:52:07.572Z,48.6
2022-11-25T16:53:23.880Z,51.2
2022-11-25T16:54:40.160Z,48.5
2022-11-25T16:55:56.461Z,48.6
2022-11-25T16:57:11.773Z,49.4
2022-11-25T16:58:28.080Z,51.2
2022-11-25T16:59:44.357Z,48.9
2022-11-25T17:01:00.650Z,50.4
2022-11-25T17:02:16.946Z,51.8